sensor_id;sensor_type;location;lat;lon;timestamp;P1;durP1;ratioP1;P2;durP2;ratioP2
71496;SDS011;59317;53.218;5.730;2023-07-29T00:02:20;11.35;;;4.75;;
71496;SDS011;59317;53.218;5.730;2023-07-29T00:04:48;11.43;;;4.55;;
71496;SDS011;59317;53.218;5.730;2023-07-29T00:07:14;13.43;;;4.53;;
71496;SDS011;59317;53.218;5.730;2023-07-29T00:09:40;11.50;;;4.43;;
71496;SDS011;59317;53.218;5.730;2023-07-29T00:12:06;14.15;;;4.60;;
71496;SDS011;59317;53.218;5.730;2023-07-29T00:14:32;11.85;;;4.13;;
71496;SDS011;59317;53.218;5.730;2023-07-29T00:16:58;11.65;;;4.22;;
71496;SDS011;59317;53.218;5.730;2023-07-29T00:19:24;12.82;;;4.00;;
71496;SDS011;59317;53.218;5.730;2023-07-29T00:21:50;13.90;;;4.50;;
71496;SDS011;59317;53.218;5.730;2023-07-29T00:24:16;12.85;;;4.38;;
71496;SDS011;59317;53.218;5.730;2023-07-29T00:26:42;10.57;;;3.90;;
71496;SDS011;59317;53.218;5.730;2023-07-29T00:29:08;12.40;;;4.00;;
71496;SDS011;59317;53.218;5.730;2023-07-29T00:31:34;10.10;;;3.65;;
71496;SDS011;59317;53.218;5.730;2023-07-29T00:34:00;10.93;;;4.20;;
71496;SDS011;59317;53.218;5.730;2023-07-29T00:36:26;10.50;;;3.63;;
71496;SDS011;59317;53.218;5.730;2023-07-29T00:38:52;10.60;;;4.20;;
71496;SDS011;59317;53.218;5.730;2023-07-29T00:41:19;13.50;;;4.20;;
71496;SDS011;59317;53.218;5.730;2023-07-29T00:43:47;12.03;;;4.10;;
71496;SDS011;59317;53.218;5.730;2023-07-29T00:46:13;12.07;;;4.43;;
71496;SDS011;59317;53.218;5.730;2023-07-29T00:48:39;12.93;;;4.80;;
71496;SDS011;59317;53.218;5.730;2023-07-29T00:51:05;15.03;;;4.90;;
71496;SDS011;59317;53.218;5.730;2023-07-29T00:53:31;13.20;;;4.70;;
71496;SDS011;59317;53.218;5.730;2023-07-29T00:55:57;12.73;;;4.70;;
71496;SDS011;59317;53.218;5.730;2023-07-29T00:58:23;12.55;;;4.80;;
71496;SDS011;59317;53.218;5.730;2023-07-29T01:00:49;13.53;;;5.03;;
71496;SDS011;59317;53.218;5.730;2023-07-29T01:03:16;14.10;;;5.38;;
71496;SDS011;59317;53.218;5.730;2023-07-29T01:05:47;14.70;;;5.20;;
71496;SDS011;59317;53.218;5.730;2023-07-29T01:08:28;11.67;;;4.83;;
71496;SDS011;59317;53.218;5.730;2023-07-29T01:11:44;12.77;;;5.60;;
71496;SDS011;59317;53.218;5.730;2023-07-29T01:13:58;15.05;;;5.60;;
71496;SDS011;59317;53.218;5.730;2023-07-29T01:16:31;14.60;;;5.40;;
71496;SDS011;59317;53.218;5.730;2023-07-29T01:18:59;13.25;;;5.88;;
71496;SDS011;59317;53.218;5.730;2023-07-29T01:21:33;15.10;;;5.90;;
71496;SDS011;59317;53.218;5.730;2023-07-29T01:23:59;14.93;;;6.17;;
71496;SDS011;59317;53.218;5.730;2023-07-29T01:26:26;13.48;;;5.68;;
71496;SDS011;59317;53.218;5.730;2023-07-29T01:28:54;14.32;;;5.97;;
71496;SDS011;59317;53.218;5.730;2023-07-29T01:31:25;12.48;;;6.00;;
71496;SDS011;59317;53.218;5.730;2023-07-29T01:33:55;15.95;;;6.47;;
71496;SDS011;59317;53.218;5.730;2023-07-29T01:36:23;16.97;;;6.97;;
71496;SDS011;59317;53.218;5.730;2023-07-29T01:38:53;15.10;;;6.88;;
71496;SDS011;59317;53.218;5.730;2023-07-29T01:41:20;16.80;;;7.53;;
71496;SDS011;59317;53.218;5.730;2023-07-29T01:43:46;14.43;;;7.18;;
71496;SDS011;59317;53.218;5.730;2023-07-29T01:46:13;16.27;;;7.32;;
71496;SDS011;59317;53.218;5.730;2023-07-29T01:48:39;13.90;;;7.10;;
71496;SDS011;59317;53.218;5.730;2023-07-29T01:51:05;17.13;;;7.40;;
71496;SDS011;59317;53.218;5.730;2023-07-29T01:53:32;15.48;;;7.03;;
71496;SDS011;59317;53.218;5.730;2023-07-29T01:56:00;16.63;;;7.10;;
71496;SDS011;59317;53.218;5.730;2023-07-29T01:58:27;14.10;;;6.80;;
71496;SDS011;59317;53.218;5.730;2023-07-29T02:00:53;13.68;;;6.70;;
71496;SDS011;59317;53.218;5.730;2023-07-29T02:03:19;14.15;;;6.65;;
71496;SDS011;59317;53.218;5.730;2023-07-29T02:05:45;14.30;;;6.50;;
71496;SDS011;59317;53.218;5.730;2023-07-29T02:08:11;12.83;;;5.73;;
71496;SDS011;59317;53.218;5.730;2023-07-29T02:10:37;13.95;;;5.93;;
71496;SDS011;59317;53.218;5.730;2023-07-29T02:13:03;16.48;;;5.95;;
71496;SDS011;59317;53.218;5.730;2023-07-29T02:15:29;15.05;;;5.47;;
71496;SDS011;59317;53.218;5.730;2023-07-29T02:17:55;11.40;;;5.43;;
71496;SDS011;59317;53.218;5.730;2023-07-29T02:20:21;15.82;;;5.80;;
71496;SDS011;59317;53.218;5.730;2023-07-29T02:22:47;15.52;;;5.53;;
71496;SDS011;59317;53.218;5.730;2023-07-29T02:25:13;11.55;;;5.15;;
71496;SDS011;59317;53.218;5.730;2023-07-29T02:27:40;12.38;;;5.40;;
71496;SDS011;59317;53.218;5.730;2023-07-29T02:30:06;14.82;;;5.40;;
71496;SDS011;59317;53.218;5.730;2023-07-29T02:32:34;13.27;;;5.33;;
71496;SDS011;59317;53.218;5.730;2023-07-29T02:35:00;13.90;;;5.57;;
71496;SDS011;59317;53.218;5.730;2023-07-29T02:37:26;15.98;;;6.00;;
71496;SDS011;59317;53.218;5.730;2023-07-29T02:39:52;14.60;;;5.93;;
71496;SDS011;59317;53.218;5.730;2023-07-29T02:42:18;12.88;;;5.53;;
71496;SDS011;59317;53.218;5.730;2023-07-29T02:44:44;14.85;;;5.70;;
71496;SDS011;59317;53.218;5.730;2023-07-29T02:47:10;13.13;;;5.22;;
71496;SDS011;59317;53.218;5.730;2023-07-29T02:49:36;12.50;;;5.38;;
71496;SDS011;59317;53.218;5.730;2023-07-29T02:52:02;13.00;;;5.30;;
71496;SDS011;59317;53.218;5.730;2023-07-29T02:54:28;14.00;;;5.30;;
71496;SDS011;59317;53.218;5.730;2023-07-29T02:56:54;15.02;;;5.53;;
71496;SDS011;59317;53.218;5.730;2023-07-29T02:59:20;12.65;;;5.32;;
71496;SDS011;59317;53.218;5.730;2023-07-29T03:01:46;11.55;;;5.20;;
71496;SDS011;59317;53.218;5.730;2023-07-29T03:04:12;15.15;;;5.20;;
71496;SDS011;59317;53.218;5.730;2023-07-29T03:06:38;12.73;;;4.82;;
71496;SDS011;59317;53.218;5.730;2023-07-29T03:09:04;13.65;;;4.90;;
71496;SDS011;59317;53.218;5.730;2023-07-29T03:11:30;14.50;;;5.10;;
71496;SDS011;59317;53.218;5.730;2023-07-29T03:13:56;14.57;;;5.00;;
71496;SDS011;59317;53.218;5.730;2023-07-29T03:16:22;14.82;;;4.80;;
71496;SDS011;59317;53.218;5.730;2023-07-29T03:18:49;13.40;;;4.80;;
71496;SDS011;59317;53.218;5.730;2023-07-29T03:21:15;12.52;;;4.72;;
71496;SDS011;59317;53.218;5.730;2023-07-29T03:23:41;16.20;;;4.85;;
71496;SDS011;59317;53.218;5.730;2023-07-29T03:26:07;11.82;;;4.63;;
71496;SDS011;59317;53.218;5.730;2023-07-29T03:28:39;13.32;;;4.57;;
71496;SDS011;59317;53.218;5.730;2023-07-29T03:31:05;15.43;;;4.70;;
71496;SDS011;59317;53.218;5.730;2023-07-29T03:33:38;13.05;;;4.10;;
71496;SDS011;59317;53.218;5.730;2023-07-29T03:36:04;14.55;;;4.60;;
71496;SDS011;59317;53.218;5.730;2023-07-29T03:38:30;12.55;;;4.80;;
71496;SDS011;59317;53.218;5.730;2023-07-29T03:40:58;12.52;;;4.45;;
71496;SDS011;59317;53.218;5.730;2023-07-29T03:43:24;11.70;;;4.28;;
71496;SDS011;59317;53.218;5.730;2023-07-29T03:45:50;13.02;;;4.38;;
71496;SDS011;59317;53.218;5.730;2023-07-29T03:48:16;13.73;;;4.30;;
71496;SDS011;59317;53.218;5.730;2023-07-29T03:50:42;13.98;;;4.60;;
71496;SDS011;59317;53.218;5.730;2023-07-29T03:53:08;11.43;;;4.30;;
71496;SDS011;59317;53.218;5.730;2023-07-29T03:55:35;12.23;;;4.50;;
71496;SDS011;59317;53.218;5.730;2023-07-29T03:58:01;11.05;;;4.03;;
71496;SDS011;59317;53.218;5.730;2023-07-29T04:00:27;12.10;;;4.50;;
71496;SDS011;59317;53.218;5.730;2023-07-29T04:02:53;11.68;;;4.10;;
71496;SDS011;59317;53.218;5.730;2023-07-29T04:05:19;11.73;;;4.13;;
71496;SDS011;59317;53.218;5.730;2023-07-29T04:07:45;11.75;;;4.35;;
71496;SDS011;59317;53.218;5.730;2023-07-29T04:10:11;12.07;;;4.35;;
71496;SDS011;59317;53.218;5.730;2023-07-29T04:12:37;11.38;;;4.22;;
71496;SDS011;59317;53.218;5.730;2023-07-29T04:15:03;12.98;;;4.30;;
71496;SDS011;59317;53.218;5.730;2023-07-29T04:17:29;12.65;;;4.40;;
71496;SDS011;59317;53.218;5.730;2023-07-29T04:19:55;10.77;;;4.35;;
71496;SDS011;59317;53.218;5.730;2023-07-29T04:22:21;11.57;;;4.40;;
71496;SDS011;59317;53.218;5.730;2023-07-29T04:24:47;12.23;;;4.60;;
71496;SDS011;59317;53.218;5.730;2023-07-29T04:27:13;13.70;;;5.30;;
71496;SDS011;59317;53.218;5.730;2023-07-29T04:29:39;13.10;;;5.30;;
71496;SDS011;59317;53.218;5.730;2023-07-29T04:32:05;14.27;;;5.13;;
71496;SDS011;59317;53.218;5.730;2023-07-29T04:34:31;14.05;;;5.20;;
71496;SDS011;59317;53.218;5.730;2023-07-29T04:36:57;12.10;;;5.28;;
71496;SDS011;59317;53.218;5.730;2023-07-29T04:39:23;12.10;;;4.70;;
71496;SDS011;59317;53.218;5.730;2023-07-29T04:41:49;13.80;;;4.63;;
71496;SDS011;59317;53.218;5.730;2023-07-29T04:44:16;12.70;;;4.47;;
71496;SDS011;59317;53.218;5.730;2023-07-29T04:46:42;12.30;;;4.22;;
71496;SDS011;59317;53.218;5.730;2023-07-29T04:49:08;12.13;;;4.10;;
71496;SDS011;59317;53.218;5.730;2023-07-29T04:51:34;13.90;;;4.20;;
71496;SDS011;59317;53.218;5.730;2023-07-29T04:54:00;10.60;;;3.80;;
71496;SDS011;59317;53.218;5.730;2023-07-29T04:56:26;12.10;;;3.73;;
71496;SDS011;59317;53.218;5.730;2023-07-29T04:58:52;10.57;;;3.57;;
71496;SDS011;59317;53.218;5.730;2023-07-29T05:01:18;10.88;;;3.50;;
71496;SDS011;59317;53.218;5.730;2023-07-29T05:03:44;10.05;;;3.35;;
71496;SDS011;59317;53.218;5.730;2023-07-29T05:06:10;10.65;;;3.47;;
71496;SDS011;59317;53.218;5.730;2023-07-29T05:08:36;11.25;;;3.40;;
71496;SDS011;59317;53.218;5.730;2023-07-29T05:11:02;9.07;;;3.30;;
71496;SDS011;59317;53.218;5.730;2023-07-29T05:13:28;13.30;;;3.58;;
71496;SDS011;59317;53.218;5.730;2023-07-29T05:15:54;11.35;;;3.28;;
71496;SDS011;59317;53.218;5.730;2023-07-29T05:18:21;11.98;;;3.40;;
71496;SDS011;59317;53.218;5.730;2023-07-29T05:20:47;10.82;;;3.55;;
71496;SDS011;59317;53.218;5.730;2023-07-29T05:23:13;10.45;;;3.38;;
71496;SDS011;59317;53.218;5.730;2023-07-29T05:25:39;11.48;;;3.22;;
71496;SDS011;59317;53.218;5.730;2023-07-29T05:28:05;12.45;;;3.42;;
71496;SDS011;59317;53.218;5.730;2023-07-29T05:30:31;12.15;;;3.50;;
71496;SDS011;59317;53.218;5.730;2023-07-29T05:32:59;10.18;;;3.40;;
71496;SDS011;59317;53.218;5.730;2023-07-29T05:35:25;13.52;;;3.47;;
71496;SDS011;59317;53.218;5.730;2023-07-29T05:37:51;12.27;;;3.70;;
71496;SDS011;59317;53.218;5.730;2023-07-29T05:40:17;10.07;;;3.40;;
71496;SDS011;59317;53.218;5.730;2023-07-29T05:42:43;12.43;;;3.25;;
71496;SDS011;59317;53.218;5.730;2023-07-29T05:45:10;12.85;;;3.63;;
71496;SDS011;59317;53.218;5.730;2023-07-29T05:47:36;14.07;;;4.00;;
71496;SDS011;59317;53.218;5.730;2023-07-29T05:50:03;9.48;;;3.70;;
71496;SDS011;59317;53.218;5.730;2023-07-29T05:52:30;10.20;;;3.60;;
71496;SDS011;59317;53.218;5.730;2023-07-29T05:54:56;11.63;;;4.07;;
71496;SDS011;59317;53.218;5.730;2023-07-29T05:57:22;13.20;;;3.80;;
71496;SDS011;59317;53.218;5.730;2023-07-29T05:59:47;13.73;;;3.70;;
71496;SDS011;59317;53.218;5.730;2023-07-29T06:02:14;12.27;;;4.00;;
71496;SDS011;59317;53.218;5.730;2023-07-29T06:04:40;13.53;;;4.33;;
71496;SDS011;59317;53.218;5.730;2023-07-29T06:07:06;12.33;;;3.90;;
71496;SDS011;59317;53.218;5.730;2023-07-29T06:09:32;15.18;;;4.00;;
71496;SDS011;59317;53.218;5.730;2023-07-29T06:11:58;10.93;;;3.60;;
71496;SDS011;59317;53.218;5.730;2023-07-29T06:14:24;14.57;;;3.90;;
71496;SDS011;59317;53.218;5.730;2023-07-29T06:16:50;14.55;;;3.83;;
71496;SDS011;59317;53.218;5.730;2023-07-29T06:19:16;11.90;;;3.60;;
71496;SDS011;59317;53.218;5.730;2023-07-29T06:21:42;12.87;;;3.87;;
71496;SDS011;59317;53.218;5.730;2023-07-29T06:24:08;11.93;;;3.53;;
71496;SDS011;59317;53.218;5.730;2023-07-29T06:26:34;14.18;;;3.42;;
71496;SDS011;59317;53.218;5.730;2023-07-29T06:29:00;11.88;;;3.38;;
71496;SDS011;59317;53.218;5.730;2023-07-29T06:31:26;11.07;;;3.08;;
71496;SDS011;59317;53.218;5.730;2023-07-29T06:33:52;10.60;;;3.50;;
71496;SDS011;59317;53.218;5.730;2023-07-29T06:36:19;10.10;;;3.05;;
71496;SDS011;59317;53.218;5.730;2023-07-29T06:38:45;10.63;;;3.40;;
71496;SDS011;59317;53.218;5.730;2023-07-29T06:41:11;12.07;;;3.17;;
71496;SDS011;59317;53.218;5.730;2023-07-29T06:43:37;10.30;;;3.17;;
71496;SDS011;59317;53.218;5.730;2023-07-29T06:46:04;10.85;;;3.30;;
71496;SDS011;59317;53.218;5.730;2023-07-29T06:48:29;13.20;;;3.10;;
71496;SDS011;59317;53.218;5.730;2023-07-29T06:50:55;10.27;;;3.13;;
71496;SDS011;59317;53.218;5.730;2023-07-29T06:53:25;9.93;;;3.25;;
71496;SDS011;59317;53.218;5.730;2023-07-29T06:55:51;15.75;;;3.45;;
71496;SDS011;59317;53.218;5.730;2023-07-29T06:58:17;13.20;;;3.15;;
71496;SDS011;59317;53.218;5.730;2023-07-29T07:00:44;10.82;;;3.22;;
71496;SDS011;59317;53.218;5.730;2023-07-29T07:03:10;12.35;;;3.70;;
71496;SDS011;59317;53.218;5.730;2023-07-29T07:05:35;9.93;;;2.97;;
71496;SDS011;59317;53.218;5.730;2023-07-29T07:08:02;11.93;;;3.17;;
71496;SDS011;59317;53.218;5.730;2023-07-29T07:10:28;10.65;;;3.00;;
71496;SDS011;59317;53.218;5.730;2023-07-29T07:12:54;11.23;;;3.10;;
71496;SDS011;59317;53.218;5.730;2023-07-29T07:15:20;9.15;;;2.63;;
71496;SDS011;59317;53.218;5.730;2023-07-29T07:17:46;11.65;;;2.90;;
71496;SDS011;59317;53.218;5.730;2023-07-29T07:20:13;10.77;;;2.65;;
71496;SDS011;59317;53.218;5.730;2023-07-29T07:22:39;11.80;;;2.65;;
71496;SDS011;59317;53.218;5.730;2023-07-29T07:25:05;10.82;;;2.67;;
71496;SDS011;59317;53.218;5.730;2023-07-29T07:27:31;10.23;;;2.75;;
71496;SDS011;59317;53.218;5.730;2023-07-29T07:29:57;11.60;;;2.40;;
71496;SDS011;59317;53.218;5.730;2023-07-29T07:32:23;11.00;;;2.30;;
71496;SDS011;59317;53.218;5.730;2023-07-29T07:34:49;11.00;;;2.90;;
71496;SDS011;59317;53.218;5.730;2023-07-29T07:37:15;8.93;;;2.35;;
71496;SDS011;59317;53.218;5.730;2023-07-29T07:39:41;9.05;;;2.50;;
71496;SDS011;59317;53.218;5.730;2023-07-29T07:42:07;9.98;;;2.30;;
71496;SDS011;59317;53.218;5.730;2023-07-29T07:44:33;11.43;;;2.10;;
71496;SDS011;59317;53.218;5.730;2023-07-29T07:46:59;13.18;;;2.53;;
71496;SDS011;59317;53.218;5.730;2023-07-29T07:49:25;10.43;;;2.22;;
71496;SDS011;59317;53.218;5.730;2023-07-29T07:51:51;8.68;;;2.20;;
71496;SDS011;59317;53.218;5.730;2023-07-29T07:54:17;11.55;;;2.28;;
71496;SDS011;59317;53.218;5.730;2023-07-29T07:56:43;7.88;;;1.83;;
71496;SDS011;59317;53.218;5.730;2023-07-29T07:59:09;8.37;;;2.00;;
71496;SDS011;59317;53.218;5.730;2023-07-29T08:01:35;9.47;;;1.87;;
71496;SDS011;59317;53.218;5.730;2023-07-29T08:04:02;9.02;;;1.92;;
71496;SDS011;59317;53.218;5.730;2023-07-29T08:06:28;8.82;;;1.80;;
71496;SDS011;59317;53.218;5.730;2023-07-29T08:08:55;9.52;;;1.70;;
71496;SDS011;59317;53.218;5.730;2023-07-29T08:11:21;9.05;;;1.92;;
71496;SDS011;59317;53.218;5.730;2023-07-29T08:13:47;6.68;;;1.58;;
71496;SDS011;59317;53.218;5.730;2023-07-29T08:16:13;7.80;;;1.63;;
71496;SDS011;59317;53.218;5.730;2023-07-29T08:18:39;8.05;;;1.40;;
71496;SDS011;59317;53.218;5.730;2023-07-29T08:21:06;9.45;;;1.55;;
71496;SDS011;59317;53.218;5.730;2023-07-29T08:23:33;7.77;;;1.70;;
71496;SDS011;59317;53.218;5.730;2023-07-29T08:26:00;8.70;;;1.80;;
71496;SDS011;59317;53.218;5.730;2023-07-29T08:28:27;8.30;;;1.60;;
71496;SDS011;59317;53.218;5.730;2023-07-29T08:30:54;9.55;;;1.70;;
71496;SDS011;59317;53.218;5.730;2023-07-29T08:33:20;9.75;;;1.65;;
71496;SDS011;59317;53.218;5.730;2023-07-29T08:35:46;8.40;;;1.45;;
71496;SDS011;59317;53.218;5.730;2023-07-29T08:38:12;7.07;;;1.67;;
71496;SDS011;59317;53.218;5.730;2023-07-29T08:40:41;6.90;;;1.67;;
71496;SDS011;59317;53.218;5.730;2023-07-29T08:43:08;7.10;;;1.40;;
71496;SDS011;59317;53.218;5.730;2023-07-29T08:45:35;8.85;;;1.60;;
71496;SDS011;59317;53.218;5.730;2023-07-29T08:48:06;7.25;;;1.42;;
71496;SDS011;59317;53.218;5.730;2023-07-29T08:50:33;7.22;;;1.60;;
71496;SDS011;59317;53.218;5.730;2023-07-29T08:53:01;7.10;;;1.50;;
71496;SDS011;59317;53.218;5.730;2023-07-29T08:55:29;7.55;;;1.67;;
71496;SDS011;59317;53.218;5.730;2023-07-29T08:57:55;7.05;;;1.30;;
71496;SDS011;59317;53.218;5.730;2023-07-29T09:00:22;7.40;;;1.80;;
71496;SDS011;59317;53.218;5.730;2023-07-29T09:02:48;6.25;;;1.30;;
71496;SDS011;59317;53.218;5.730;2023-07-29T09:05:14;6.10;;;1.50;;
71496;SDS011;59317;53.218;5.730;2023-07-29T09:07:40;5.85;;;1.42;;
71496;SDS011;59317;53.218;5.730;2023-07-29T09:10:08;7.45;;;1.55;;
71496;SDS011;59317;53.218;5.730;2023-07-29T09:12:37;6.72;;;1.58;;
71496;SDS011;59317;53.218;5.730;2023-07-29T09:15:04;6.57;;;1.50;;
71496;SDS011;59317;53.218;5.730;2023-07-29T09:17:31;6.85;;;1.60;;
71496;SDS011;59317;53.218;5.730;2023-07-29T09:19:57;7.25;;;1.48;;
71496;SDS011;59317;53.218;5.730;2023-07-29T09:22:23;5.93;;;1.20;;
71496;SDS011;59317;53.218;5.730;2023-07-29T09:24:50;5.53;;;1.35;;
71496;SDS011;59317;53.218;5.730;2023-07-29T09:27:23;5.70;;;1.20;;
71496;SDS011;59317;53.218;5.730;2023-07-29T09:29:50;6.07;;;1.25;;
71496;SDS011;59317;53.218;5.730;2023-07-29T09:32:22;6.55;;;1.50;;
71496;SDS011;59317;53.218;5.730;2023-07-29T09:34:49;5.10;;;1.27;;
71496;SDS011;59317;53.218;5.730;2023-07-29T09:37:15;5.50;;;1.23;;
71496;SDS011;59317;53.218;5.730;2023-07-29T09:39:43;6.60;;;1.00;;
71496;SDS011;59317;53.218;5.730;2023-07-29T09:42:11;5.83;;;1.50;;
71496;SDS011;59317;53.218;5.730;2023-07-29T09:44:37;6.70;;;1.30;;
71496;SDS011;59317;53.218;5.730;2023-07-29T09:47:03;5.63;;;1.38;;
71496;SDS011;59317;53.218;5.730;2023-07-29T09:49:29;8.00;;;1.40;;
71496;SDS011;59317;53.218;5.730;2023-07-29T09:52:01;6.30;;;1.15;;
71496;SDS011;59317;53.218;5.730;2023-07-29T09:54:29;4.82;;;1.17;;
71496;SDS011;59317;53.218;5.730;2023-07-29T09:56:56;5.93;;;1.30;;
71496;SDS011;59317;53.218;5.730;2023-07-29T09:59:23;5.22;;;1.20;;
71496;SDS011;59317;53.218;5.730;2023-07-29T10:01:49;6.70;;;1.50;;
71496;SDS011;59317;53.218;5.730;2023-07-29T10:04:15;6.03;;;1.30;;
71496;SDS011;59317;53.218;5.730;2023-07-29T10:06:42;5.57;;;1.40;;
71496;SDS011;59317;53.218;5.730;2023-07-29T10:09:09;5.30;;;1.30;;
71496;SDS011;59317;53.218;5.730;2023-07-29T10:11:37;9.03;;;1.30;;
71496;SDS011;59317;53.218;5.730;2023-07-29T10:14:03;6.95;;;1.30;;
71496;SDS011;59317;53.218;5.730;2023-07-29T10:16:29;4.90;;;1.10;;
71496;SDS011;59317;53.218;5.730;2023-07-29T10:18:55;4.28;;;0.95;;
71496;SDS011;59317;53.218;5.730;2023-07-29T10:21:22;5.97;;;1.20;;
71496;SDS011;59317;53.218;5.730;2023-07-29T10:23:48;4.82;;;1.20;;
71496;SDS011;59317;53.218;5.730;2023-07-29T10:26:16;5.53;;;1.30;;
71496;SDS011;59317;53.218;5.730;2023-07-29T10:28:44;4.70;;;1.13;;
71496;SDS011;59317;53.218;5.730;2023-07-29T10:31:12;6.38;;;1.30;;
71496;SDS011;59317;53.218;5.730;2023-07-29T10:33:38;4.85;;;1.20;;
71496;SDS011;59317;53.218;5.730;2023-07-29T10:36:05;5.97;;;1.58;;
71496;SDS011;59317;53.218;5.730;2023-07-29T10:38:31;6.18;;;1.50;;
71496;SDS011;59317;53.218;5.730;2023-07-29T10:40:57;6.20;;;1.40;;
71496;SDS011;59317;53.218;5.730;2023-07-29T10:43:27;5.47;;;1.50;;
71496;SDS011;59317;53.218;5.730;2023-07-29T10:45:54;5.88;;;1.50;;
71496;SDS011;59317;53.218;5.730;2023-07-29T10:53:46;4.20;;;0.90;;
71496;SDS011;59317;53.218;5.730;2023-07-29T10:56:12;4.07;;;0.82;;
71496;SDS011;59317;53.218;5.730;2023-07-29T10:58:38;5.00;;;0.90;;
71496;SDS011;59317;53.218;5.730;2023-07-29T11:01:13;4.60;;;1.00;;
71496;SDS011;59317;53.218;5.730;2023-07-29T11:07:01;6.35;;;1.20;;
71496;SDS011;59317;53.218;5.730;2023-07-29T11:14:52;4.35;;;0.88;;
71496;SDS011;59317;53.218;5.730;2023-07-29T11:17:18;4.68;;;1.10;;
71496;SDS011;59317;53.218;5.730;2023-07-29T11:19:44;4.82;;;1.00;;
71496;SDS011;59317;53.218;5.730;2023-07-29T11:22:11;5.13;;;1.03;;
71496;SDS011;59317;53.218;5.730;2023-07-29T11:24:37;4.30;;;1.10;;
71496;SDS011;59317;53.218;5.730;2023-07-29T11:27:03;3.93;;;0.90;;
71496;SDS011;59317;53.218;5.730;2023-07-29T11:29:29;7.32;;;1.10;;
71496;SDS011;59317;53.218;5.730;2023-07-29T11:31:55;6.57;;;1.20;;
71496;SDS011;59317;53.218;5.730;2023-07-29T11:34:33;5.45;;;1.13;;
71496;SDS011;59317;53.218;5.730;2023-07-29T11:36:59;5.43;;;1.20;;
71496;SDS011;59317;53.218;5.730;2023-07-29T11:39:25;5.68;;;1.00;;
71496;SDS011;59317;53.218;5.730;2023-07-29T11:41:51;7.07;;;1.30;;
71496;SDS011;59317;53.218;5.730;2023-07-29T11:44:18;7.40;;;1.30;;
71496;SDS011;59317;53.218;5.730;2023-07-29T11:46:44;4.35;;;1.02;;
71496;SDS011;59317;53.218;5.730;2023-07-29T11:49:10;6.65;;;1.17;;
71496;SDS011;59317;53.218;5.730;2023-07-29T11:51:36;6.85;;;1.35;;
71496;SDS011;59317;53.218;5.730;2023-07-29T11:54:02;5.00;;;1.10;;
71496;SDS011;59317;53.218;5.730;2023-07-29T11:56:29;4.85;;;1.20;;
71496;SDS011;59317;53.218;5.730;2023-07-29T11:58:58;6.07;;;1.00;;
71496;SDS011;59317;53.218;5.730;2023-07-29T12:01:24;6.28;;;1.20;;
71496;SDS011;59317;53.218;5.730;2023-07-29T12:03:50;8.98;;;1.40;;
71496;SDS011;59317;53.218;5.730;2023-07-29T12:06:16;6.93;;;1.50;;
71496;SDS011;59317;53.218;5.730;2023-07-29T12:08:42;4.70;;;1.00;;
71496;SDS011;59317;53.218;5.730;2023-07-29T12:11:09;6.70;;;1.42;;
71496;SDS011;59317;53.218;5.730;2023-07-29T12:13:38;7.15;;;1.60;;
71496;SDS011;59317;53.218;5.730;2023-07-29T12:16:04;5.77;;;1.27;;
71496;SDS011;59317;53.218;5.730;2023-07-29T12:18:32;6.80;;;1.38;;
71496;SDS011;59317;53.218;5.730;2023-07-29T12:20:58;7.43;;;1.17;;
71496;SDS011;59317;53.218;5.730;2023-07-29T12:23:25;7.50;;;1.42;;
71496;SDS011;59317;53.218;5.730;2023-07-29T12:25:57;6.13;;;1.30;;
71496;SDS011;59317;53.218;5.730;2023-07-29T12:28:24;7.82;;;1.50;;
71496;SDS011;59317;53.218;5.730;2023-07-29T12:30:53;6.10;;;1.50;;
71496;SDS011;59317;53.218;5.730;2023-07-29T12:33:32;5.70;;;1.25;;
71496;SDS011;59317;53.218;5.730;2023-07-29T12:35:58;6.55;;;1.40;;
71496;SDS011;59317;53.218;5.730;2023-07-29T12:38:28;8.38;;;1.80;;
71496;SDS011;59317;53.218;5.730;2023-07-29T12:40:54;8.27;;;1.70;;
71496;SDS011;59317;53.218;5.730;2023-07-29T12:43:20;5.78;;;1.63;;
71496;SDS011;59317;53.218;5.730;2023-07-29T12:45:46;8.95;;;1.63;;
71496;SDS011;59317;53.218;5.730;2023-07-29T12:48:12;7.30;;;1.70;;
71496;SDS011;59317;53.218;5.730;2023-07-29T12:50:38;7.50;;;1.60;;
71496;SDS011;59317;53.218;5.730;2023-07-29T12:53:05;7.43;;;1.67;;
71496;SDS011;59317;53.218;5.730;2023-07-29T12:55:31;7.03;;;1.50;;
71496;SDS011;59317;53.218;5.730;2023-07-29T12:57:57;6.40;;;1.53;;
71496;SDS011;59317;53.218;5.730;2023-07-29T13:00:24;5.80;;;1.50;;
71496;SDS011;59317;53.218;5.730;2023-07-29T13:02:50;6.72;;;1.63;;
71496;SDS011;59317;53.218;5.730;2023-07-29T13:05:16;8.25;;;1.65;;
71496;SDS011;59317;53.218;5.730;2023-07-29T13:07:42;5.85;;;1.30;;
71496;SDS011;59317;53.218;5.730;2023-07-29T13:10:12;7.25;;;1.75;;
71496;SDS011;59317;53.218;5.730;2023-07-29T13:12:38;7.10;;;1.90;;
71496;SDS011;59317;53.218;5.730;2023-07-29T13:15:05;7.13;;;1.70;;
71496;SDS011;59317;53.218;5.730;2023-07-29T13:17:31;8.25;;;1.60;;
71496;SDS011;59317;53.218;5.730;2023-07-29T13:19:57;6.45;;;1.70;;
71496;SDS011;59317;53.218;5.730;2023-07-29T13:22:23;7.38;;;1.60;;
71496;SDS011;59317;53.218;5.730;2023-07-29T13:24:49;8.20;;;2.00;;
71496;SDS011;59317;53.218;5.730;2023-07-29T13:27:15;7.45;;;1.83;;
71496;SDS011;59317;53.218;5.730;2023-07-29T13:29:41;6.88;;;1.70;;
71496;SDS011;59317;53.218;5.730;2023-07-29T13:32:08;7.37;;;1.90;;
71496;SDS011;59317;53.218;5.730;2023-07-29T13:34:34;6.57;;;1.80;;
71496;SDS011;59317;53.218;5.730;2023-07-29T13:37:01;7.53;;;1.60;;
71496;SDS011;59317;53.218;5.730;2023-07-29T13:39:27;6.63;;;1.70;;
71496;SDS011;59317;53.218;5.730;2023-07-29T13:41:53;9.05;;;1.95;;
71496;SDS011;59317;53.218;5.730;2023-07-29T13:44:19;9.32;;;1.77;;
71496;SDS011;59317;53.218;5.730;2023-07-29T13:46:45;8.13;;;2.00;;
71496;SDS011;59317;53.218;5.730;2023-07-29T13:49:11;7.43;;;1.80;;
71496;SDS011;59317;53.218;5.730;2023-07-29T13:51:37;6.38;;;1.80;;
71496;SDS011;59317;53.218;5.730;2023-07-29T13:54:03;7.72;;;1.80;;
71496;SDS011;59317;53.218;5.730;2023-07-29T13:56:29;7.85;;;1.90;;
71496;SDS011;59317;53.218;5.730;2023-07-29T13:58:55;8.95;;;1.95;;
71496;SDS011;59317;53.218;5.730;2023-07-29T14:01:21;7.30;;;1.70;;
71496;SDS011;59317;53.218;5.730;2023-07-29T14:03:49;6.82;;;1.35;;
71496;SDS011;59317;53.218;5.730;2023-07-29T14:06:15;6.82;;;1.60;;
71496;SDS011;59317;53.218;5.730;2023-07-29T14:08:41;9.43;;;1.65;;
71496;SDS011;59317;53.218;5.730;2023-07-29T14:11:07;7.05;;;1.50;;
71496;SDS011;59317;53.218;5.730;2023-07-29T14:13:33;6.28;;;1.50;;
71496;SDS011;59317;53.218;5.730;2023-07-29T14:16:01;6.05;;;1.48;;
71496;SDS011;59317;53.218;5.730;2023-07-29T14:18:27;6.47;;;1.50;;
71496;SDS011;59317;53.218;5.730;2023-07-29T14:20:53;6.05;;;1.48;;
71496;SDS011;59317;53.218;5.730;2023-07-29T14:23:19;8.45;;;1.30;;
71496;SDS011;59317;53.218;5.730;2023-07-29T14:25:45;5.50;;;1.40;;
71496;SDS011;59317;53.218;5.730;2023-07-29T14:28:12;6.68;;;1.70;;
71496;SDS011;59317;53.218;5.730;2023-07-29T14:30:39;5.57;;;1.23;;
71496;SDS011;59317;53.218;5.730;2023-07-29T14:33:06;5.40;;;1.13;;
71496;SDS011;59317;53.218;5.730;2023-07-29T14:35:32;5.88;;;1.20;;
71496;SDS011;59317;53.218;5.730;2023-07-29T14:37:58;5.05;;;1.10;;
71496;SDS011;59317;53.218;5.730;2023-07-29T14:40:24;4.78;;;1.27;;
71496;SDS011;59317;53.218;5.730;2023-07-29T14:42:50;7.35;;;1.50;;
71496;SDS011;59317;53.218;5.730;2023-07-29T14:45:16;6.63;;;1.30;;
71496;SDS011;59317;53.218;5.730;2023-07-29T14:47:42;5.32;;;1.40;;
71496;SDS011;59317;53.218;5.730;2023-07-29T14:50:08;6.05;;;1.40;;
71496;SDS011;59317;53.218;5.730;2023-07-29T14:52:34;4.80;;;0.90;;